Time;durP1;ratioP1;P1;durP2;ratioP2;P2;SDS_P1;SDS_P2;PMS_P1;PMS_P2;Temp;Humidity;BMP_temperature;BMP_pressure;BME280_temperature;BME280_humidity;BME280_pressure;Samples;Min_cycle;Max_cycle;Signal;HPM_P1;HPM_P2
2022/08/19 00:00:50;;;;;;;2.47;0.17;;;;;;;18.67;100.00;100602.56;5019807;28;20081;-49
2022/08/19 00:03:15;;;;;;;0.57;0.30;;;;;;;18.58;100.00;100609.38;5021454;28;20072;-54
2022/08/19 00:05:41;;;;;;;3.08;0.50;;;;;;;18.53;100.00;100613.63;5017677;28;20040;-53
2022/08/19 00:08:07;;;;;;;0.75;0.17;;;;;;;18.55;100.00;100609.88;5021883;28;20083;-52
2022/08/19 00:10:33;;;;;;;4.43;0.22;;;;;;;18.53;100.00;100616.28;5021269;28;20445;-53
2022/08/19 00:12:59;;;;;;;1.55;0.20;;;;;;;18.46;100.00;100612.13;5018959;28;20103;-54
2022/08/19 00:15:24;;;;;;;0.10;0.10;;;;;;;18.44;100.00;100607.00;5012674;28;20014;-47
2022/08/19 00:17:50;;;;;;;2.42;0.40;;;;;;;18.44;100.00;100609.66;5011565;28;20034;-50
2022/08/19 00:20:19;;;;;;;1.23;0.20;;;;;;;18.45;100.00;100616.66;5018022;28;20022;-50
2022/08/19 00:22:45;;;;;;;0.75;0.50;;;;;;;18.44;100.00;100612.34;5020159;28;20453;-49
2022/08/19 00:25:11;;;;;;;1.42;0.68;;;;;;;18.42;100.00;100616.34;5016038;28;20091;-52
2022/08/19 00:27:37;;;;;;;3.05;0.10;;;;;;;18.39;100.00;100617.63;5022303;28;20558;-51
2022/08/19 00:30:05;;;;;;;6.30;0.60;;;;;;;18.37;100.00;100627.78;5022701;28;20385;-47
2022/08/19 00:32:31;;;;;;;1.08;0.40;;;;;;;18.30;100.00;100630.63;5016429;28;20115;-48
2022/08/19 00:34:56;;;;;;;2.28;0.52;;;;;;;18.26;100.00;100634.00;5019346;28;20068;-52
2022/08/19 00:37:23;;;;;;;1.83;1.13;;;;;;;18.22;100.00;100632.84;5018778;28;20467;-50
2022/08/19 00:39:50;;;;;;;1.58;0.60;;;;;;;18.19;100.00;100631.44;5024080;28;20034;-50
2022/08/19 00:42:16;;;;;;;1.85;1.52;;;;;;;18.20;100.00;100645.69;5020213;28;20025;-50
2022/08/19 00:44:42;;;;;;;0.50;0.45;;;;;;;18.21;100.00;100644.66;5019585;28;20514;-47
2022/08/19 00:47:08;;;;;;;2.35;1.30;;;;;;;18.23;100.00;100655.97;5020758;28;20040;-47
2022/08/19 00:49:37;;;;;;;2.08;0.43;;;;;;;18.25;100.00;100652.00;5021625;28;20022;-47
2022/08/19 00:52:14;;;;;;;0.95;0.50;;;;;;;18.22;100.00;100636.34;5019217;28;20037;-49
2022/08/19 00:54:40;;;;;;;1.00;0.73;;;;;;;18.17;100.00;100635.44;5023474;28;20028;-46
2022/08/19 00:57:09;;;;;;;0.77;0.77;;;;;;;18.12;100.00;100636.13;5025189;28;20120;-51
2022/08/19 00:59:38;;;;;;;1.38;1.20;;;;;;;18.12;100.00;100633.44;5024104;28;20499;-46
2022/08/19 01:02:04;;;;;;;2.55;1.40;;;;;;;18.14;100.00;100635.91;5025868;28;20541;-48
2022/08/19 01:04:29;;;;;;;0.55;0.32;;;;;;;18.16;100.00;100636.50;5013965;28;20113;-49
2022/08/19 01:06:57;;;;;;;0.80;0.75;;;;;;;18.18;100.00;100637.06;5019780;28;20060;-47
2022/08/19 01:09:22;;;;;;;2.92;0.73;;;;;;;18.18;100.00;100634.41;5030346;28;20041;-52
2022/08/19 01:11:49;;;;;;;0.63;0.40;;;;;;;18.21;100.00;100634.72;5030066;28;20029;-50
2022/08/19 01:14:16;;;;;;;0.95;0.55;;;;;;;18.23;100.00;100629.94;5025616;28;20030;-49
2022/08/19 01:16:44;;;;;;;1.75;0.60;;;;;;;18.26;100.00;100607.97;5028500;28;20041;-51
2022/08/19 01:19:23;;;;;;;3.67;1.60;;;;;;;18.25;100.00;100614.41;5027055;28;20382;-52
2022/08/19 01:21:53;;;;;;;2.50;0.60;;;;;;;18.21;100.00;100601.72;5021800;28;20044;-51
2022/08/19 01:24:19;;;;;;;3.63;0.52;;;;;;;18.12;100.00;100608.50;5036726;28;20092;-48
2022/08/19 01:26:47;;;;;;;2.38;0.38;;;;;;;18.06;100.00;100608.38;5026775;28;20017;-54
2022/08/19 01:29:13;;;;;;;1.27;0.43;;;;;;;18.08;100.00;100614.34;5021718;28;20080;-50
2022/08/19 01:31:39;;;;;;;2.90;0.55;;;;;;;18.14;100.00;100617.13;5026456;28;20049;-48
2022/08/19 01:34:05;;;;;;;1.17;0.73;;;;;;;18.19;100.00;100628.78;5025941;28;20030;-49
2022/08/19 01:36:34;;;;;;;1.00;0.50;;;;;;;18.22;100.00;100625.59;5029676;28;20017;-50
2022/08/19 01:39:05;;;;;;;0.47;0.47;;;;;;;18.23;100.00;100615.72;5025269;28;20450;-51
2022/08/19 01:41:30;;;;;;;2.53;0.75;;;;;;;18.23;100.00;100629.13;5018266;28;20478;-54
2022/08/19 01:43:56;;;;;;;1.67;0.90;;;;;;;18.23;100.00;100626.44;5022513;28;20029;-51
2022/08/19 01:46:21;;;;;;;1.25;0.70;;;;;;;18.21;100.00;100615.94;5026169;28;20044;-50
2022/08/19 01:48:47;;;;;;;1.30;0.80;;;;;;;18.18;100.00;100619.09;5029497;28;20475;-50
2022/08/19 01:51:13;;;;;;;2.38;0.88;;;;;;;18.17;100.00;100630.06;5023561;28;20052;-51
2022/08/19 01:53:40;;;;;;;3.13;1.10;;;;;;;18.21;100.00;100628.53;5018310;28;20214;-51
2022/08/19 01:56:06;;;;;;;0.65;0.40;;;;;;;18.21;100.00;100629.34;5021829;28;20506;-48
2022/08/19 01:58:38;;;;;;;0.40;0.40;;;;;;;18.19;100.00;100612.66;5038411;28;20051;-50
2022/08/19 02:01:04;;;;;;;0.90;0.20;;;;;;;18.19;100.00;100614.53;5024118;28;20064;-49
2022/08/19 02:03:30;;;;;;;2.58;0.50;;;;;;;18.20;100.00;100602.75;5021929;28;20032;-49
2022/08/19 02:06:02;;;;;;;1.38;0.60;;;;;;;18.22;100.00;100616.75;5015570;28;20013;-50
2022/08/19 02:08:28;;;;;;;0.70;0.28;;;;;;;18.23;100.00;100611.16;5035862;28;20474;-50
2022/08/19 02:10:54;;;;;;;0.98;0.50;;;;;;;18.24;100.00;100612.78;5029656;28;20025;-50
2022/08/19 02:13:19;;;;;;;1.55;0.20;;;;;;;18.24;100.00;100618.13;5030249;28;20129;-50
2022/08/19 02:15:45;;;;;;;0.60;0.45;;;;;;;18.21;100.00;100626.66;5019871;28;20487;-51
2022/08/19 02:18:10;;;;;;;1.65;0.65;;;;;;;18.21;100.00;100626.66;5030365;28;20049;-50
2022/08/19 02:20:38;;;;;;;0.85;0.57;;;;;;;18.20;100.00;100629.56;5029705;28;20433;-51
2022/08/19 02:23:04;;;;;;;0.65;0.30;;;;;;;18.18;100.00;100629.84;5027984;28;20028;-53
2022/08/19 02:25:30;;;;;;;0.60;0.57;;;;;;;18.17;100.00;100638.91;5031938;28;20551;-54
2022/08/19 02:27:55;;;;;;;2.28;0.50;;;;;;;18.15;100.00;100627.63;5025654;28;20026;-53
2022/08/19 02:30:21;;;;;;;1.65;0.60;;;;;;;18.16;100.00;100636.50;5041394;28;20037;-54
2022/08/19 02:32:47;;;;;;;1.27;0.90;;;;;;;18.15;100.00;100637.53;5026765;28;20430;-52
2022/08/19 02:35:13;;;;;;;2.55;0.40;;;;;;;18.14;100.00;100638.59;5031152;28;20059;-52
2022/08/19 02:40:24;;;;;;;0.85;0.82;;;;;;;18.13;100.00;100642.34;5026689;28;20043;-54
2022/08/19 02:42:49;;;;;;;0.30;0.30;;;;;;;18.08;100.00;100635.00;5030393;28;20030;-53
2022/08/19 02:45:14;;;;;;;3.92;0.45;;;;;;;18.05;100.00;100638.97;5026389;28;20372;-52
2022/08/19 02:47:40;;;;;;;1.52;0.43;;;;;;;18.06;100.00;100645.94;5033593;28;20025;-56
2022/08/19 02:50:06;;;;;;;0.40;0.25;;;;;;;18.04;100.00;100649.91;5031465;28;20371;-54
2022/08/19 02:52:33;;;;;;;1.50;0.60;;;;;;;18.04;100.00;100645.41;5027564;28;20496;-51
2022/08/19 02:54:59;;;;;;;1.45;0.70;;;;;;;18.04;100.00;100648.06;5029168;28;20040;-56
2022/08/19 02:57:26;;;;;;;1.70;1.45;;;;;;;18.04;100.00;100647.22;5023347;28;20021;-53
2022/08/19 02:59:53;;;;;;;0.57;0.57;;;;;;;18.00;100.00;100640.72;5034730;28;20026;-50
2022/08/19 03:02:18;;;;;;;1.25;0.90;;;;;;;17.98;100.00;100651.69;5027942;28;20125;-55
2022/08/19 03:04:44;;;;;;;0.65;0.65;;;;;;;17.97;100.00;100654.63;5025569;28;20160;-58
2022/08/19 03:07:14;;;;;;;2.60;0.63;;;;;;;17.93;100.00;100656.94;5029278;28;20041;-54
2022/08/19 03:09:39;;;;;;;0.50;0.50;;;;;;;17.92;100.00;100662.56;5026730;28;20061;-53
2022/08/19 03:12:05;;;;;;;0.30;0.30;;;;;;;17.92;100.00;100666.06;5028600;28;20447;-52
2022/08/19 03:14:32;;;;;;;0.55;0.55;;;;;;;17.91;100.00;100663.59;5028677;28;20036;-49
2022/08/19 03:16:57;;;;;;;0.63;0.57;;;;;;;17.92;100.00;100666.06;5028737;28;20029;-56
2022/08/19 03:19:23;;;;;;;1.08;0.22;;;;;;;17.92;100.00;100657.19;5023165;28;20056;-49
2022/08/19 03:21:49;;;;;;;1.38;0.20;;;;;;;17.94;100.00;100669.31;5021439;28;20061;-55
2022/08/19 03:24:17;;;;;;;0.30;0.30;;;;;;;17.93;100.00;100672.22;5030394;28;20545;-58
2022/08/19 03:26:46;;;;;;;3.70;0.77;;;;;;;17.92;100.00;100674.09;5025036;28;20397;-54
2022/08/19 03:29:12;;;;;;;0.35;0.13;;;;;;;17.92;100.00;100673.28;5019965;28;20035;-57
2022/08/19 03:31:39;;;;;;;0.65;0.05;;;;;;;17.90;100.00;100670.03;5025924;28;20474;-55
2022/08/19 03:34:05;;;;;;;1.40;0.10;;;;;;;17.88;100.00;100670.25;5025630;28;20501;-57
2022/08/19 03:36:31;;;;;;;0.00;0.00;;;;;;;17.86;100.00;100667.81;5026065;28;20025;-59
2022/08/19 03:38:59;;;;;;;0.30;0.10;;;;;;;17.82;100.00;100673.88;5019394;28;20085;-52
2022/08/19 03:41:30;;;;;;;0.30;0.30;;;;;;;17.76;100.00;100674.75;5022520;28;20471;-53
2022/08/19 03:43:55;;;;;;;0.52;0.00;;;;;;;17.77;100.00;100679.09;5029776;28;20036;-56
2022/08/19 03:46:27;;;;;;;0.57;0.05;;;;;;;17.78;100.00;100673.47;5018820;28;20041;-60
2022/08/19 03:48:55;;;;;;;0.17;0.00;;;;;;;17.77;100.00;100677.22;5025423;28;20608;-58
2022/08/19 03:51:24;;;;;;;0.30;0.10;;;;;;;17.71;100.00;100671.97;5024974;28;20091;-54
2022/08/19 03:53:50;;;;;;;2.28;0.10;;;;;;;17.64;100.00;100677.44;5017020;28;20431;-55
2022/08/19 03:56:17;;;;;;;6.40;0.73;;;;;;;17.58;100.00;100671.16;5026641;28;20030;-56
2022/08/19 03:58:43;;;;;;;0.10;0.00;;;;;;;17.53;100.00;100668.34;5021174;28;20121;-52
2022/08/19 04:01:18;;;;;;;0.65;0.10;;;;;;;17.44;100.00;100675.09;5019658;28;20033;-58
2022/08/19 04:03:46;;;;;;;0.00;0.00;;;;;;;17.33;100.00;100667.88;5027615;28;20100;-55
2022/08/19 04:06:20;;;;;;;0.00;0.00;;;;;;;17.22;100.00;100670.31;5017870;28;20064;-55
2022/08/19 04:08:46;;;;;;;3.40;0.88;;;;;;;17.11;100.00;100663.03;5019328;28;20030;-58
2022/08/19 04:11:20;;;;;;;0.00;0.00;;;;;;;17.02;100.00;100664.44;5022375;28;20078;-59
2022/08/19 04:13:46;;;;;;;0.98;0.10;;;;;;;17.00;100.00;100669.19;5014540;28;20425;-57
2022/08/19 04:16:12;;;;;;;0.28;0.00;;;;;;;16.92;100.00;100664.97;5027099;28;20033;-58
2022/08/19 04:18:39;;;;;;;0.00;0.00;;;;;;;16.89;100.00;100676.16;5020261;28;20029;-55
2022/08/19 04:21:05;;;;;;;0.08;0.00;;;;;;;16.86;100.00;100681.16;5022855;28;20052;-54
2022/08/19 04:23:31;;;;;;;0.08;0.00;;;;;;;16.83;100.00;100681.59;5029415;28;20106;-57
2022/08/19 04:25:57;;;;;;;0.00;0.00;;;;;;;16.79;100.00;100686.59;5023291;28;20041;-57
2022/08/19 04:28:23;;;;;;;0.65;0.00;;;;;;;16.76;100.00;100682.47;5027064;28;20033;-55
2022/08/19 04:30:51;;;;;;;1.40;0.40;;;;;;;16.73;100.00;100682.13;5019745;28;20505;-59
2022/08/19 04:33:19;;;;;;;1.20;0.00;;;;;;;16.68;100.00;100684.66;5023104;28;20025;-55
2022/08/19 04:35:48;;;;;;;0.30;0.15;;;;;;;16.58;100.00;100690.53;5026695;28;20105;-56
2022/08/19 04:38:14;;;;;;;0.73;0.00;;;;;;;16.53;100.00;100682.38;5022902;28;20029;-58
2022/08/19 04:43:34;;;;;;;1.30;0.00;;;;;;;16.50;100.00;100689.00;5026095;28;20509;-55
2022/08/19 04:46:06;;;;;;;0.00;0.00;;;;;;;16.50;100.00;100694.34;5020012;28;20025;-58
2022/08/19 04:48:31;;;;;;;0.00;0.00;;;;;;;16.47;100.00;100704.66;5019813;28;20440;-57
2022/08/19 04:50:57;;;;;;;0.50;0.05;;;;;;;16.44;100.00;100707.78;5022321;28;20056;-58
2022/08/19 04:53:31;;;;;;;0.00;0.00;;;;;;;16.39;100.00;100708.47;5024572;28;20479;-55
2022/08/19 04:55:58;;;;;;;0.70;0.00;;;;;;;16.36;100.00;100709.72;5027240;28;20451;-58
2022/08/19 04:58:26;;;;;;;0.25;0.25;;;;;;;16.33;100.00;100720.06;5016668;28;20029;-53
2022/08/19 05:00:52;;;;;;;0.00;0.00;;;;;;;16.25;100.00;100718.50;5020799;28;20109;-57
2022/08/19 05:03:18;;;;;;;0.00;0.00;;;;;;;16.23;100.00;100722.44;5018742;28;20610;-59
2022/08/19 05:05:45;;;;;;;0.00;0.00;;;;;;;16.26;100.00;100724.66;5027415;28;20114;-59
2022/08/19 05:08:12;;;;;;;0.20;0.10;;;;;;;16.26;100.00;100727.34;5031546;28;20041;-55
2022/08/19 05:10:40;;;;;;;1.02;0.20;;;;;;;16.26;100.00;100736.22;5025763;28;20038;-57
2022/08/19 05:13:05;;;;;;;1.08;0.00;;;;;;;16.23;100.00;100744.66;5023329;28;20045;-59
2022/08/19 05:15:31;;;;;;;0.55;0.00;;;;;;;16.23;100.00;100741.16;5025281;28;20070;-54
2022/08/19 05:23:24;;;;;;;0.43;0.00;;;;;;;16.38;100.00;100738.94;5025794;28;20485;-56
2022/08/19 05:25:51;;;;;;;0.00;0.00;;;;;;;16.44;100.00;100738.03;5021691;28;20030;-58
2022/08/19 05:28:18;;;;;;;0.20;0.00;;;;;;;16.51;100.00;100735.31;5029986;28;20060;-55
2022/08/19 05:30:44;;;;;;;0.22;0.10;;;;;;;16.61;100.00;100732.91;5013963;28;20037;-58
2022/08/19 05:33:11;;;;;;;0.45;0.20;;;;;;;16.67;100.00;100732.00;5024251;28;20026;-57
2022/08/19 05:35:37;;;;;;;0.20;0.03;;;;;;;16.69;100.00;100739.81;5027442;28;20021;-57
2022/08/19 05:38:03;;;;;;;0.32;0.32;;;;;;;16.73;100.00;100736.47;5018925;28;20030;-57
2022/08/19 05:40:28;;;;;;;0.10;0.10;;;;;;;16.75;100.00;100728.22;5016568;28;20466;-57
2022/08/19 05:42:54;;;;;;;1.30;0.10;;;;;;;16.77;100.00;100731.47;5018854;28;20079;-51
2022/08/19 05:45:20;;;;;;;0.52;0.30;;;;;;;16.81;100.00;100731.91;5019408;28;20018;-55
2022/08/19 05:47:46;;;;;;;0.55;0.10;;;;;;;16.78;100.00;100728.63;5020177;28;20033;-55
2022/08/19 05:50:12;;;;;;;0.80;0.10;;;;;;;16.77;100.00;100729.66;5034482;28;20068;-55
2022/08/19 05:52:38;;;;;;;0.60;0.00;;;;;;;16.72;100.00;100734.81;5026271;28;20065;-53
2022/08/19 05:55:03;;;;;;;4.95;1.00;;;;;;;16.67;100.00;100741.91;5024098;28;20037;-53
2022/08/19 05:57:30;;;;;;;0.80;0.65;;;;;;;16.59;100.00;100732.31;5015933;28;20395;-52
2022/08/19 05:59:56;;;;;;;0.43;0.00;;;;;;;16.53;100.00;100733.22;5017444;28;20321;-55
2022/08/19 06:02:22;;;;;;;0.98;0.00;;;;;;;16.45;100.00;100725.50;5017636;28;20045;-58
2022/08/19 06:04:47;;;;;;;0.30;0.10;;;;;;;16.38;100.00;100717.53;5021312;28;20549;-58
2022/08/19 06:07:12;;;;;;;0.88;0.10;;;;;;;16.34;100.00;100725.22;5018718;28;21241;-59
2022/08/19 06:09:39;;;;;;;0.35;0.00;;;;;;;16.28;100.00;100728.75;5021868;28;20037;-55
2022/08/19 06:12:04;;;;;;;0.10;0.10;;;;;;;16.21;100.00;100728.03;5021893;28;20525;-52
2022/08/19 06:14:33;;;;;;;0.45;0.00;;;;;;;16.18;100.00;100730.31;5022249;28;20030;-50
2022/08/19 06:17:01;;;;;;;3.20;0.20;;;;;;;16.16;100.00;100741.25;5020177;28;20030;-53
2022/08/19 06:19:29;;;;;;;0.00;0.00;;;;;;;16.14;100.00;100746.81;5019305;28;20032;-56
2022/08/19 06:21:56;;;;;;;1.65;0.00;;;;;;;16.17;100.00;100739.41;5024209;28;20060;-55
2022/08/19 06:24:24;;;;;;;0.40;0.03;;;;;;;16.19;100.00;100745.34;5018324;28;20132;-49
2022/08/19 06:26:52;;;;;;;1.65;0.10;;;;;;;16.17;100.00;100736.72;5020912;28;20029;-51
2022/08/19 06:29:20;;;;;;;1.25;0.10;;;;;;;16.16;100.00;100737.75;5017007;28;20498;-52
2022/08/19 06:31:49;;;;;;;2.17;0.00;;;;;;;16.13;100.00;100747.03;5013573;28;20419;-55
2022/08/19 06:34:15;;;;;;;0.47;0.00;;;;;;;16.13;100.00;100733.66;5013568;28;20479;-52
2022/08/19 06:36:44;;;;;;;1.73;0.00;;;;;;;16.15;100.00;100736.94;5018135;28;20529;-47
2022/08/19 06:39:23;;;;;;;2.53;0.20;;;;;;;16.22;100.00;100729.66;5017502;28;20028;-56
2022/08/19 06:41:49;;;;;;;1.23;0.03;;;;;;;16.30;100.00;100736.56;5014665;28;20034;-54
2022/08/19 06:44:16;;;;;;;0.30;0.00;;;;;;;16.33;100.00;100731.59;5018617;28;20033;-52
2022/08/19 06:46:41;;;;;;;4.05;0.47;;;;;;;16.40;100.00;100730.72;5014870;28;20101;-49
2022/08/19 06:49:09;;;;;;;3.20;0.63;;;;;;;16.49;100.00;100724.00;5020612;28;20719;-48
2022/08/19 06:51:35;;;;;;;0.35;0.20;;;;;;;16.54;100.00;100721.47;5012955;28;20040;-49
2022/08/19 06:54:01;;;;;;;0.20;0.20;;;;;;;16.53;100.00;100720.66;5022036;28;20025;-51
2022/08/19 06:56:34;;;;;;;0.77;0.20;;;;;;;16.60;100.00;100722.41;5017114;28;20029;-56
2022/08/19 06:59:05;;;;;;;0.10;0.10;;;;;;;16.66;100.00;100722.34;5022418;28;20026;-55
2022/08/19 07:01:35;;;;;;;0.20;0.00;;;;;;;16.75;100.00;100723.69;5015517;28;20036;-45
2022/08/19 07:04:02;;;;;;;3.42;0.20;;;;;;;16.85;100.00;100720.47;5005593;28;20030;-50
2022/08/19 07:06:27;;;;;;;2.17;0.10;;;;;;;16.92;100.00;100715.88;5018769;28;20116;-54
2022/08/19 07:08:52;;;;;;;1.13;0.40;;;;;;;16.90;100.00;100715.25;5007636;28;20538;-50
2022/08/19 07:11:18;;;;;;;3.97;0.43;;;;;;;16.98;100.00;100711.44;5016858;28;20585;-53
2022/08/19 07:13:45;;;;;;;0.70;0.10;;;;;;;17.04;100.00;100710.56;5019180;28;20425;-50
2022/08/19 07:16:16;;;;;;;2.95;0.52;;;;;;;17.18;100.00;100720.03;5018308;28;20041;-51
2022/08/19 07:18:44;;;;;;;0.98;0.10;;;;;;;17.46;100.00;100705.19;5013272;28;20495;-57
2022/08/19 07:21:12;;;;;;;3.15;0.20;;;;;;;17.52;100.00;100679.31;5018382;28;20041;-45
2022/08/19 07:23:38;;;;;;;9.13;0.50;;;;;;;17.54;100.00;100686.06;5021835;28;20125;-54
2022/08/19 07:26:25;;;;;;;0.00;0.00;;;;;;;17.59;100.00;100691.56;5014272;28;20048;-53
2022/08/19 07:28:51;;;;;;;8.05;0.00;;;;;;;17.57;100.00;100690.16;5016128;28;20029;-51
2022/08/19 07:31:21;;;;;;;3.10;0.65;;;;;;;17.60;100.00;100697.72;5015046;28;20553;-52
2022/08/19 07:33:48;;;;;;;4.63;0.60;;;;;;;17.65;100.00;100700.53;5023241;28;20382;-50
2022/08/19 07:36:17;;;;;;;2.72;0.75;;;;;;;17.69;100.00;100704.38;5017117;28;20295;-53
2022/08/19 07:38:47;;;;;;;1.05;0.00;;;;;;;17.78;100.00;100710.22;5018745;28;20060;-48
2022/08/19 07:41:16;;;;;;;2.50;0.10;;;;;;;17.74;100.00;100699.13;5016376;28;20098;-54
2022/08/19 07:43:43;;;;;;;3.25;0.15;;;;;;;17.60;100.00;100703.91;5020994;28;20026;-56
2022/08/19 07:49:30;;;;;;;5.25;1.27;;;;;;;17.48;100.00;100713.81;4983724;28;20064;-53
2022/08/19 07:52:03;;;;;;;0.70;0.20;;;;;;;17.55;100.00;100713.69;5012430;28;20029;-46
2022/08/19 07:54:31;;;;;;;1.88;0.20;;;;;;;17.41;100.00;100702.38;5018256;28;20032;-54
2022/08/19 07:56:57;;;;;;;2.85;0.68;;;;;;;17.33;100.00;100700.84;5019022;28;20048;-55
2022/08/19 07:59:23;;;;;;;6.60;0.75;;;;;;;17.45;100.00;100700.88;5010029;28;20033;-50
2022/08/19 08:01:49;;;;;;;3.80;0.47;;;;;;;17.71;100.00;100717.53;5019590;28;20056;-52
2022/08/19 08:09:44;;;;;;;2.53;0.65;;;;;;;17.89;100.00;100701.41;5021165;28;20044;-51
2022/08/19 08:12:16;;;;;;;5.85;0.50;;;;;;;18.00;100.00;100707.78;5021334;28;20041;-49
2022/08/19 08:14:48;;;;;;;0.95;0.30;;;;;;;17.95;100.00;100700.44;5019242;28;20075;-53
2022/08/19 08:17:15;;;;;;;5.63;1.02;;;;;;;18.06;100.00;100707.66;5023416;28;20260;-54
2022/08/19 08:19:42;;;;;;;5.00;1.33;;;;;;;18.14;100.00;100692.25;5018859;28;20033;-56
2022/08/19 08:23:21;;;;;;;6.35;0.50;;;;;;;18.26;100.00;100691.19;5014722;28;20128;-53
2022/08/19 08:24:54;;;;;;;5.57;0.32;;;;;;;18.44;100.00;100681.34;5017626;28;20052;-55
2022/08/19 08:27:19;;;;;;;1.92;0.57;;;;;;;18.65;100.00;100686.06;5016816;28;20033;-52
2022/08/19 08:29:45;;;;;;;2.05;0.10;;;;;;;18.86;100.00;100673.84;5016286;28;20055;-54
2022/08/19 08:32:10;;;;;;;2.92;0.50;;;;;;;19.04;100.00;100682.75;5018046;28;20029;-51
2022/08/19 08:34:36;;;;;;;7.47;1.08;;;;;;;19.16;100.00;100692.38;5017806;28;20692;-51
2022/08/19 08:37:03;;;;;;;4.97;0.70;;;;;;;19.21;100.00;100688.16;5021498;28;20021;-51
2022/08/19 08:39:28;;;;;;;2.70;0.30;;;;;;;19.16;100.00;100692.38;5007434;28;20061;-52
2022/08/19 08:42:19;;;;;;;2.65;0.45;;;;;;;19.17;100.00;100685.13;5014014;28;20076;-49
2022/08/19 08:44:57;;;;;;;4.65;1.05;;;;;;;19.21;100.00;100690.84;5010966;28;20112;-49
2022/08/19 08:47:26;;;;;;;4.97;0.20;;;;;;;19.23;100.00;100673.38;5018975;28;20073;-51
2022/08/19 08:49:56;;;;;;;0.80;0.30;;;;;;;19.28;100.00;100675.34;5018216;28;20537;-54
2022/08/19 08:52:28;;;;;;;3.92;0.25;;;;;;;19.28;100.00;100681.53;5020945;28;20140;-53
2022/08/19 08:54:58;;;;;;;5.53;0.55;;;;;;;19.52;100.00;100687.59;5018087;28;20029;-52
2022/08/19 08:57:28;;;;;;;8.48;0.50;;;;;;;19.71;100.00;100696.25;5022085;28;20563;-53
2022/08/19 08:59:56;;;;;;;3.83;0.70;;;;;;;19.91;100.00;100684.97;5019023;28;20033;-49
2022/08/19 09:02:22;;;;;;;2.72;0.43;;;;;;;19.86;100.00;100681.41;5005900;28;20101;-52
2022/08/19 09:04:48;;;;;;;2.85;0.25;;;;;;;19.95;100.00;100685.28;5010030;28;20030;-55
2022/08/19 09:07:35;;;;;;;1.77;0.73;;;;;;;20.36;100.00;100686.59;5007504;28;20717;-51
2022/08/19 09:10:15;;;;;;;2.35;0.30;;;;;;;20.43;100.00;100691.81;5013021;28;20021;-50
2022/08/19 09:13:16;;;;;;;4.97;0.70;;;;;;;20.29;100.00;100688.69;4991663;28;20572;-52
2022/08/19 09:15:49;;;;;;;3.53;0.30;;;;;;;20.25;100.00;100695.63;5040814;28;20478;-50
2022/08/19 09:18:16;;;;;;;1.05;0.10;;;;;;;20.47;100.00;100682.16;5005185;28;20189;-51
2022/08/19 09:20:42;;;;;;;3.35;1.27;;;;;;;20.74;100.00;100686.81;5014511;28;20456;-51
2022/08/19 09:23:07;;;;;;;1.17;0.10;;;;;;;20.97;100.00;100686.50;5019005;28;20454;-53
2022/08/19 09:25:34;;;;;;;0.65;0.22;;;;;;;21.11;100.00;100682.31;5020937;28;20072;-51
2022/08/19 09:28:03;;;;;;;1.33;0.10;;;;;;;21.03;100.00;100677.38;5015885;28;20116;-53
2022/08/19 09:30:34;;;;;;;1.85;0.30;;;;;;;21.25;100.00;100690.00;5012755;28;20038;-51
2022/08/19 09:33:00;;;;;;;4.68;0.47;;;;;;;21.25;100.00;100690.00;5010978;28;20543;-58
2022/08/19 09:35:28;;;;;;;4.05;0.20;;;;;;;20.88;100.00;100688.84;5012262;28;20033;-50
2022/08/19 09:37:55;;;;;;;4.28;0.40;;;;;;;20.62;100.00;100695.00;5020706;28;20049;-54
2022/08/19 09:40:20;;;;;;;3.60;0.93;;;;;;;20.47;100.00;100691.06;5014206;28;20565;-55
2022/08/19 09:42:47;;;;;;;5.10;1.08;;;;;;;20.84;100.00;100700.38;5025052;28;20053;-57
2022/08/19 09:45:14;;;;;;;5.45;0.50;;;;;;;21.03;100.00;100698.13;5011348;28;20375;-49
2022/08/19 09:47:39;;;;;;;4.50;0.85;;;;;;;20.87;100.00;100703.38;5024403;28;20052;-55
2022/08/19 09:50:07;;;;;;;3.38;0.10;;;;;;;20.97;100.00;100704.56;5020697;28;20298;-51
2022/08/19 09:52:33;;;;;;;3.35;0.77;;;;;;;20.89;100.00;100692.34;5030515;28;20115;-52
2022/08/19 09:54:59;;;;;;;8.07;2.50;;;;;;;20.72;100.00;100707.78;5017139;28;20045;-50
2022/08/19 09:57:24;;;;;;;1.73;0.52;;;;;;;20.68;100.00;100705.63;5014066;28;20087;-52
2022/08/19 09:59:49;;;;;;;3.47;0.10;;;;;;;20.86;100.00;100700.97;5014929;28;20061;-52
2022/08/19 10:02:15;;;;;;;2.92;0.30;;;;;;;20.86;100.00;100700.97;5014441;28;20408;-55
2022/08/19 10:07:24;;;;;;;2.72;0.98;;;;;;;21.09;100.00;100700.63;5016572;28;20152;-51
2022/08/19 10:09:50;;;;;;;5.43;0.47;;;;;;;21.18;100.00;100700.16;5021641;28;20570;-50
2022/08/19 10:12:15;;;;;;;4.63;0.30;;;;;;;21.13;100.00;100698.22;5013521;28;20089;-50
2022/08/19 10:14:41;;;;;;;2.13;0.40;;;;;;;20.98;100.00;100698.09;5016385;28;20061;-48
2022/08/19 10:17:07;;;;;;;1.58;0.38;;;;;;;20.75;100.00;100707.28;5011632;28;20038;-49
2022/08/19 10:19:35;;;;;;;9.63;1.30;;;;;;;20.74;100.00;100701.09;5013026;28;20033;-49
2022/08/19 10:22:04;;;;;;;4.88;0.47;;;;;;;21.06;100.00;100701.13;5013150;28;20022;-50
2022/08/19 10:24:30;;;;;;;2.45;0.50;;;;;;;21.38;100.00;100708.47;5018714;28;20486;-51
2022/08/19 10:26:56;;;;;;;2.50;0.65;;;;;;;21.50;100.00;100701.03;5019063;28;20088;-48
2022/08/19 10:29:22;;;;;;;4.88;0.45;;;;;;;21.62;100.00;100703.50;5016368;28;20061;-50
2022/08/19 10:31:47;;;;;;;4.60;0.45;;;;;;;21.75;100.00;100715.75;5019979;28;20463;-52
2022/08/19 10:34:13;;;;;;;2.42;0.63;;;;;;;22.00;100.00;100698.91;5010849;28;20542;-53
2022/08/19 10:36:38;;;;;;;5.95;0.95;;;;;;;22.02;100.00;100712.13;5019037;28;20029;-54
2022/08/19 10:39:07;;;;;;;4.63;0.45;;;;;;;21.94;100.00;100695.38;5021503;28;20430;-52
2022/08/19 10:41:36;;;;;;;5.55;1.15;;;;;;;21.83;100.00;100701.75;5031618;28;20647;-54
2022/08/19 10:44:05;;;;;;;2.90;0.50;;;;;;;21.70;100.00;100704.91;5020981;28;20581;-46
2022/08/19 10:46:33;;;;;;;3.38;1.15;;;;;;;22.14;100.00;100704.63;5021570;28;20026;-47
2022/08/19 10:49:02;;;;;;;3.15;0.70;;;;;;;21.95;99.92;100715.06;5020545;28;20544;-48
2022/08/19 10:54:12;;;;;;;4.70;0.40;;;;;;;21.96;94.37;100712.09;5024333;28;21539;-57
2022/08/19 10:56:52;;;;;;;4.45;0.73;;;;;;;21.91;94.29;100717.47;5026201;28;20104;-55
2022/08/19 10:59:27;;;;;;;3.70;0.88;;;;;;;22.31;86.72;100720.69;5010964;28;20045;-54
2022/08/19 11:01:54;;;;;;;1.77;0.25;;;;;;;22.18;91.31;100727.34;5018093;28;20027;-51
2022/08/19 11:04:19;;;;;;;2.90;0.30;;;;;;;21.87;91.44;100737.16;5021646;28;20034;-52
2022/08/19 11:06:47;;;;;;;1.95;0.50;;;;;;;21.63;90.17;100718.63;5017634;28;20383;-49
2022/08/19 11:09:24;;;;;;;2.03;0.60;;;;;;;22.15;87.29;100723.28;5018506;28;20032;-50
2022/08/19 11:11:52;;;;;;;5.55;0.55;;;;;;;22.22;85.51;100725.75;5022249;28;21107;-50
2022/08/19 11:14:20;;;;;;;3.35;0.52;;;;;;;21.93;82.10;100730.72;5013639;28;20063;-48
2022/08/19 11:16:46;;;;;;;2.65;0.70;;;;;;;21.70;81.30;100740.81;5018581;28;20057;-47
2022/08/19 11:19:13;;;;;;;1.95;0.40;;;;;;;21.52;79.47;100725.81;5015971;28;20026;-55
2022/08/19 11:21:41;;;;;;;6.60;0.63;;;;;;;21.51;78.00;100724.22;5023946;28;20025;-51
2022/08/19 11:24:14;;;;;;;6.57;0.75;;;;;;;21.77;76.36;100721.72;5018036;28;20040;-51
2022/08/19 11:26:41;;;;;;;2.00;0.68;;;;;;;22.46;76.20;100722.63;5021610;28;20026;-47
2022/08/19 11:29:12;;;;;;;5.00;0.47;;;;;;;22.73;73.13;100723.28;5018940;28;20489;-55
2022/08/19 11:31:39;;;;;;;;;;;;;;;22.41;67.76;100716.13;5024841;28;20064;-50
2022/08/19 11:34:07;;;;;;;2.83;0.38;;;;;;;22.51;71.86;100709.13;5019157;28;19921;-54
2022/08/19 11:36:33;;;;;;;2.70;0.77;;;;;;;22.71;69.96;100711.09;5017186;28;20395;-55
2022/08/19 11:38:59;;;;;;;1.75;0.95;;;;;;;23.31;71.08;100712.28;5018247;28;20025;-51
2022/08/19 11:41:25;;;;;;;1.65;0.32;;;;;;;23.57;70.17;100710.41;5022338;28;20453;-51
2022/08/19 11:43:55;;;;;;;2.67;0.43;;;;;;;23.45;68.18;100701.75;5028239;28;20092;-52